createdAt,value
2018-08-07T00:01:57.766Z,3.70
2018-08-07T00:04:27.942Z,3.83
2018-08-07T00:06:58.348Z,3.10
2018-08-07T00:09:28.502Z,3.00
2018-08-07T00:11:58.517Z,4.77
2018-08-07T00:14:29.181Z,4.40
2018-08-07T00:16:59.175Z,4.70
2018-08-07T00:19:29.414Z,2.57
2018-08-07T00:21:59.578Z,3.57
2018-08-07T00:24:29.761Z,4.37
2018-08-07T00:27:00.420Z,3.73
2018-08-07T00:29:30.368Z,3.97
2018-08-07T00:32:00.563Z,4.47
2018-08-07T00:34:30.940Z,4.63
2018-08-07T00:37:00.831Z,3.17
2018-08-07T00:39:30.839Z,4.63
2018-08-07T00:42:00.890Z,3.57
2018-08-07T00:44:30.857Z,3.97
2018-08-07T00:47:01.491Z,5.53
2018-08-07T00:49:31.462Z,7.23
2018-08-07T00:52:01.669Z,4.23
2018-08-07T00:54:32.139Z,3.03
2018-08-07T00:57:02.360Z,5.13
2018-08-07T00:59:32.280Z,3.60
2018-08-07T01:02:02.664Z,4.00
2018-08-07T01:04:32.615Z,4.23
2018-08-07T01:07:02.655Z,2.97
2018-08-07T01:09:33.324Z,5.30
2018-08-07T01:12:03.399Z,3.43
2018-08-07T01:14:33.323Z,4.17
2018-08-07T01:17:03.675Z,4.70
2018-08-07T01:19:33.756Z,4.83
2018-08-07T01:22:03.977Z,3.93
2018-08-07T01:24:34.319Z,4.37
2018-08-07T01:27:04.667Z,6.00
2018-08-07T01:29:34.666Z,4.40
2018-08-07T01:32:04.990Z,3.20
2018-08-07T01:34:34.945Z,4.07
2018-08-07T01:37:05.017Z,3.93
2018-08-07T01:39:35.622Z,4.27
2018-08-07T01:42:05.864Z,3.30
2018-08-07T01:44:35.783Z,4.50
2018-08-07T01:47:05.750Z,4.47
2018-08-07T01:49:35.713Z,3.47
2018-08-07T01:52:05.851Z,4.77
2018-08-07T01:54:35.838Z,3.67
2018-08-07T01:57:06.427Z,4.33
2018-08-07T01:59:36.337Z,3.87
2018-08-07T02:02:06.435Z,3.30
2018-08-07T02:04:36.407Z,5.93
2018-08-07T02:07:06.021Z,5.60
2018-08-07T02:09:35.954Z,7.03
2018-08-07T02:12:06.148Z,4.03
2018-08-07T02:14:36.294Z,3.20
2018-08-07T02:17:07.367Z,4.07
2018-08-07T02:19:37.336Z,3.67
2018-08-07T02:22:06.798Z,5.77
2018-08-07T02:24:37.253Z,4.33
2018-08-07T02:27:07.351Z,5.17
2018-08-07T02:29:37.225Z,3.93
2018-08-07T02:32:07.948Z,4.33
2018-08-07T02:34:38.035Z,3.53
2018-08-07T02:37:08.067Z,3.53
2018-08-07T02:39:38.011Z,3.33
2018-08-07T02:42:07.942Z,5.03
2018-08-07T02:44:37.867Z,3.53
2018-08-07T02:47:07.880Z,5.87
2018-08-07T02:49:37.782Z,3.60
2018-08-07T02:52:08.223Z,3.53
2018-08-07T02:54:38.213Z,4.03
2018-08-07T02:57:08.246Z,3.83
2018-08-07T02:59:38.467Z,3.07
2018-08-07T03:02:09.121Z,5.43
2018-08-07T03:04:39.031Z,5.80
2018-08-07T03:07:09.650Z,3.70
2018-08-07T03:09:39.548Z,3.10
2018-08-07T03:12:08.962Z,4.90
2018-08-07T03:14:38.955Z,3.20
2018-08-07T03:17:08.158Z,5.37
2018-08-07T03:19:38.125Z,5.57
2018-08-07T03:22:08.323Z,3.50
2018-08-07T03:24:38.217Z,6.67
2018-08-07T03:27:08.403Z,3.23
2018-08-07T03:29:38.357Z,5.03
2018-08-07T03:32:08.554Z,3.07
2018-08-07T03:34:38.601Z,3.67
2018-08-07T03:37:09.233Z,5.13
2018-08-07T03:39:39.140Z,3.67
2018-08-07T03:42:09.333Z,5.63
2018-08-07T03:44:39.387Z,4.23
2018-08-07T03:47:09.506Z,3.30
2018-08-07T03:49:39.493Z,4.63
2018-08-07T03:52:09.607Z,3.87
2018-08-07T03:54:39.481Z,5.13
2018-08-07T03:57:09.701Z,4.13
2018-08-07T03:59:39.773Z,3.70
2018-08-07T04:02:09.847Z,3.10
2018-08-07T04:04:39.799Z,2.90
2018-08-07T04:07:09.779Z,3.93
2018-08-07T04:09:39.780Z,3.23
2018-08-07T04:12:10.495Z,3.33
2018-08-07T04:14:40.443Z,4.20
2018-08-07T04:17:10.550Z,6.47
2018-08-07T04:19:40.523Z,3.40
2018-08-07T04:22:10.551Z,3.47
2018-08-07T04:24:40.447Z,3.23
2018-08-07T04:27:10.861Z,3.97
2018-08-07T04:29:40.873Z,6.40
2018-08-07T04:32:11.030Z,4.60
2018-08-07T04:34:40.965Z,4.00
2018-08-07T04:37:11.084Z,4.37
2018-08-07T04:39:41.006Z,3.27
2018-08-07T04:42:11.546Z,5.63
2018-08-07T04:44:42.103Z,4.07
2018-08-07T04:47:12.292Z,3.87
2018-08-07T04:49:42.307Z,3.37
2018-08-07T04:52:12.440Z,4.07
2018-08-07T04:54:42.450Z,3.53
2018-08-07T04:57:12.900Z,4.00
2018-08-07T04:59:42.771Z,5.50
2018-08-07T05:02:12.786Z,3.90
2018-08-07T05:04:42.944Z,3.60
2018-08-07T05:07:12.882Z,5.80
2018-08-07T05:09:43.000Z,5.53
2018-08-07T05:12:13.206Z,4.10
2018-08-07T05:14:43.258Z,3.73
2018-08-07T05:17:26.539Z,4.40
2018-08-07T05:19:56.528Z,9.43
2018-08-07T05:22:27.260Z,3.43
2018-08-07T05:24:57.339Z,4.17
2018-08-07T05:27:27.521Z,3.37
2018-08-07T05:29:58.360Z,3.83
2018-08-07T05:32:29.229Z,3.10
2018-08-07T05:35:00.055Z,4.90
2018-08-07T05:37:32.460Z,4.60
2018-08-07T05:40:02.854Z,3.40
2018-08-07T05:42:36.732Z,3.50
2018-08-07T05:45:08.877Z,5.25
2018-08-07T05:47:39.291Z,3.63
2018-08-07T05:50:13.307Z,5.20
2018-08-07T05:52:45.228Z,5.00
2018-08-07T05:55:17.131Z,4.23
2018-08-07T05:57:47.504Z,8.73
2018-08-07T06:00:19.549Z,8.23
2018-08-07T06:02:50.966Z,9.33
2018-08-07T06:05:21.311Z,7.90
2018-08-07T06:07:52.334Z,5.37
2018-08-07T06:10:22.614Z,5.97
2018-08-07T06:12:54.430Z,3.50
2018-08-07T06:15:23.817Z,6.03
2018-08-07T06:17:54.116Z,4.97
2018-08-07T06:20:24.796Z,4.47
2018-08-07T06:22:55.264Z,5.63
2018-08-07T06:25:25.625Z,4.53
2018-08-07T06:27:56.228Z,5.83
2018-08-07T06:30:26.368Z,4.63
2018-08-07T06:32:56.411Z,5.43
2018-08-07T06:35:25.907Z,5.30
2018-08-07T06:37:56.552Z,3.80
2018-08-07T06:40:27.609Z,5.37
2018-08-07T06:42:57.840Z,3.70
2018-08-07T06:45:28.281Z,6.87
2018-08-07T06:47:58.435Z,7.00
2018-08-07T06:50:29.044Z,4.03
2018-08-07T06:52:59.484Z,5.60
2018-08-07T06:55:29.900Z,3.73
2018-08-07T06:58:00.041Z,5.25
2018-08-07T07:00:31.223Z,5.40
2018-08-07T07:03:04.712Z,5.03
2018-08-07T07:05:35.177Z,5.03
2018-08-07T07:08:07.723Z,7.43
2018-08-07T07:10:37.941Z,3.43
2018-08-07T07:13:09.386Z,6.83
2018-08-07T07:15:40.316Z,5.83
2018-08-07T07:18:10.331Z,4.70
2018-08-07T07:20:41.042Z,5.17
2018-08-07T07:23:11.887Z,7.07
2018-08-07T07:25:42.403Z,5.43
2018-08-07T07:28:13.027Z,5.47
2018-08-07T07:30:43.284Z,4.27
2018-08-07T07:33:13.578Z,5.13
2018-08-07T07:35:43.725Z,4.10
2018-08-07T07:38:14.713Z,5.20
2018-08-07T07:40:45.045Z,4.00
2018-08-07T07:43:15.528Z,5.50
2018-08-07T07:45:46.071Z,10.43
2018-08-07T07:48:16.194Z,4.63
2018-08-07T07:50:46.520Z,4.50
2018-08-07T07:53:17.434Z,3.27
2018-08-07T07:55:48.923Z,6.47
2018-08-07T07:58:19.286Z,3.20
2018-08-07T08:00:49.471Z,7.33
2018-08-07T08:03:20.080Z,4.37
2018-08-07T08:05:50.536Z,6.23
2018-08-07T08:08:20.940Z,6.00
2018-08-07T08:10:53.650Z,4.87
2018-08-07T08:13:24.798Z,6.40
2018-08-07T08:15:55.054Z,8.93
2018-08-07T08:18:25.925Z,3.73
2018-08-07T08:20:56.356Z,7.13
2018-08-07T08:23:26.532Z,3.80
2018-08-07T08:25:58.900Z,5.77
2018-08-07T08:28:29.795Z,4.60
2018-08-07T08:30:59.919Z,5.33
2018-08-07T08:33:37.750Z,3.53
2018-08-07T08:36:07.933Z,4.63
2018-08-07T08:38:38.096Z,4.80
2018-08-07T08:41:08.737Z,3.57
2018-08-07T08:43:39.398Z,6.30
2018-08-07T08:46:10.605Z,5.43
2018-08-07T08:48:41.710Z,4.30
2018-08-07T08:51:11.758Z,4.17
2018-08-07T08:53:41.826Z,5.73
2018-08-07T08:56:12.275Z,5.80
2018-08-07T08:58:43.927Z,5.00
2018-08-07T09:01:14.562Z,7.17
2018-08-07T09:03:45.359Z,5.17
2018-08-07T09:06:16.191Z,9.23
2018-08-07T09:08:46.690Z,4.67
2018-08-07T09:11:17.709Z,4.47
2018-08-07T09:13:48.816Z,3.93
2018-08-07T09:16:20.447Z,4.10
2018-08-07T09:18:54.052Z,6.90
2018-08-07T09:21:24.791Z,4.50
2018-08-07T09:23:55.184Z,3.63
2018-08-07T09:26:25.999Z,5.60
2018-08-07T09:28:56.660Z,4.87
2018-08-07T09:31:27.402Z,5.67
2018-08-07T09:33:58.586Z,3.77
2018-08-07T09:36:29.583Z,5.00
2018-08-07T09:39:01.127Z,5.43
2018-08-07T09:41:32.538Z,5.03
2018-08-07T09:44:04.503Z,5.27
2018-08-07T09:46:34.976Z,4.30
2018-08-07T09:49:06.698Z,5.53
2018-08-07T09:51:41.535Z,5.30
2018-08-07T09:54:11.981Z,4.80
2018-08-07T09:56:42.914Z,4.60
2018-08-07T09:59:13.813Z,5.90
2018-08-07T10:01:50.589Z,3.47
2018-08-07T10:04:22.519Z,4.93
2018-08-07T10:06:53.504Z,3.60
2018-08-07T10:09:24.171Z,6.37
2018-08-07T10:11:54.432Z,3.83
2018-08-07T10:14:28.992Z,3.77
2018-08-07T10:17:00.056Z,6.73
2018-08-07T10:19:30.543Z,5.77
2018-08-07T10:22:02.655Z,3.40
2018-08-07T10:24:35.408Z,3.40
2018-08-07T10:27:07.648Z,5.17
2018-08-07T10:29:38.408Z,3.83
2018-08-07T10:32:11.978Z,4.87
2018-08-07T10:34:42.463Z,3.90
2018-08-07T10:37:12.875Z,5.90
2018-08-07T10:39:45.003Z,4.57
2018-08-07T10:42:15.431Z,3.80
2018-08-07T10:44:45.942Z,5.17
2018-08-07T10:47:16.628Z,3.43
2018-08-07T10:49:47.054Z,3.63
2018-08-07T10:52:17.121Z,4.20
2018-08-07T10:54:47.779Z,3.87
2018-08-07T10:57:18.151Z,4.40
2018-08-07T10:59:50.126Z,2.77
2018-08-07T11:02:20.408Z,4.10
2018-08-07T11:04:55.141Z,3.43
2018-08-07T11:07:27.777Z,4.23
2018-08-07T11:10:00.726Z,2.90
2018-08-07T11:12:32.669Z,4.80
2018-08-07T11:15:03.383Z,3.30
2018-08-07T11:17:34.363Z,3.27
2018-08-07T11:20:10.310Z,3.23
2018-08-07T11:22:40.672Z,3.63
2018-08-07T11:25:14.265Z,6.00
2018-08-07T11:27:45.940Z,5.13
2018-08-07T11:30:20.493Z,6.40
2018-08-07T11:32:51.283Z,4.33
2018-08-07T11:35:22.353Z,3.93
2018-08-07T11:37:54.352Z,4.80
2018-08-07T11:40:26.192Z,2.57
2018-08-07T11:42:57.651Z,2.70
2018-08-07T11:45:31.501Z,3.17
2018-08-07T11:48:01.764Z,3.43
2018-08-07T11:50:34.165Z,4.53
2018-08-07T11:53:04.937Z,5.83
2018-08-07T11:55:35.758Z,3.10
2018-08-07T11:58:07.890Z,3.60
2018-08-07T12:00:41.116Z,4.20
2018-08-07T12:03:14.516Z,2.90
2018-08-07T12:05:46.668Z,4.50
2018-08-07T12:08:18.201Z,4.10
2018-08-07T12:10:49.000Z,5.27
2018-08-07T12:13:19.497Z,3.40
2018-08-07T12:15:50.517Z,2.60
2018-08-07T12:18:22.357Z,5.50
2018-08-07T12:20:52.421Z,4.77
2018-08-07T12:23:22.770Z,3.57
2018-08-07T12:25:52.917Z,3.30
2018-08-07T12:28:23.852Z,4.73
2018-08-07T12:30:54.959Z,4.43
2018-08-07T12:33:25.188Z,3.53
2018-08-07T12:35:55.741Z,3.90
2018-08-07T12:38:26.361Z,3.73
2018-08-07T12:40:58.167Z,3.13
2018-08-07T12:43:29.285Z,3.10
2018-08-07T12:45:59.795Z,3.27
2018-08-07T12:48:31.175Z,4.40
2018-08-07T12:51:01.633Z,2.97
2018-08-07T12:53:32.323Z,4.08
2018-08-07T12:56:03.584Z,2.87
2018-08-07T12:58:34.767Z,3.40
2018-08-07T13:01:05.564Z,5.27
2018-08-07T13:03:36.476Z,4.87
2018-08-07T13:06:07.501Z,4.35
2018-08-07T13:08:37.847Z,3.40
2018-08-07T13:11:08.108Z,3.73
2018-08-07T13:13:39.230Z,4.67
2018-08-07T13:16:09.661Z,3.00
2018-08-07T13:18:41.218Z,6.23
2018-08-07T13:21:11.381Z,3.45
2018-08-07T13:23:41.599Z,3.25
2018-08-07T13:26:12.225Z,4.67
2018-08-07T13:28:42.592Z,3.22
2018-08-07T13:31:13.364Z,3.90
2018-08-07T13:33:44.756Z,6.08
2018-08-07T13:36:15.226Z,4.50
2018-08-07T13:38:45.795Z,3.75
2018-08-07T13:41:16.233Z,3.40
2018-08-07T13:43:46.876Z,3.60
2018-08-07T13:46:17.386Z,4.42
2018-08-07T13:48:48.295Z,6.37
2018-08-07T13:51:18.665Z,4.37
2018-08-07T13:54:00.760Z,2.62
2018-08-07T13:56:30.979Z,5.72
2018-08-07T13:59:02.032Z,3.35
2018-08-07T14:01:32.652Z,2.90
2018-08-07T14:04:04.175Z,3.02
2018-08-07T14:06:34.429Z,4.65
2018-08-07T14:09:05.285Z,4.42
2018-08-07T14:11:35.641Z,3.60
2018-08-07T14:14:06.320Z,4.67
2018-08-07T14:16:36.700Z,4.83
2018-08-07T14:19:07.733Z,3.22
2018-08-07T14:21:37.936Z,4.62
2018-08-07T14:24:08.180Z,6.12
2018-08-07T14:26:37.551Z,6.08
2018-08-07T14:29:07.731Z,3.95
2018-08-07T14:31:38.038Z,4.42
2018-08-07T14:34:09.460Z,6.25
2018-08-07T14:36:39.786Z,8.28
2018-08-07T14:39:11.417Z,8.93
2018-08-07T14:41:41.709Z,5.15
2018-08-07T14:44:12.009Z,5.58
2018-08-07T14:46:43.204Z,3.87
2018-08-07T14:49:13.642Z,5.65
2018-08-07T14:51:43.703Z,4.03
2018-08-07T14:54:14.890Z,5.60
2018-08-07T14:56:46.211Z,6.90
2018-08-07T14:59:16.459Z,7.22
2018-08-07T15:01:46.744Z,7.45
2018-08-07T15:04:17.145Z,8.68
2018-08-07T15:06:47.158Z,5.97
2018-08-07T15:09:17.192Z,4.65
2018-08-07T15:11:47.827Z,7.95
2018-08-07T15:14:18.015Z,6.90
2018-08-07T15:16:48.612Z,5.33
2018-08-07T15:19:19.076Z,7.47
2018-08-07T15:21:49.764Z,7.72
2018-08-07T15:24:20.100Z,8.18
2018-08-07T15:26:51.011Z,7.60
2018-08-07T15:29:22.021Z,9.60
2018-08-07T15:31:52.491Z,11.25
2018-08-07T15:34:23.766Z,5.90
2018-08-07T15:36:54.730Z,6.95
2018-08-07T15:39:25.439Z,8.58
2018-08-07T15:41:57.623Z,9.58
2018-08-07T15:44:28.141Z,9.75
2018-08-07T15:46:58.506Z,9.13
2018-08-07T15:49:29.265Z,12.88
2018-08-07T15:51:59.641Z,9.40
2018-08-07T15:54:30.267Z,11.38
2018-08-07T15:57:04.316Z,8.20
2018-08-07T15:59:35.404Z,7.75
2018-08-07T16:02:07.182Z,10.80
2018-08-07T16:04:37.521Z,10.93
2018-08-07T16:07:08.373Z,10.88
2018-08-07T16:09:42.115Z,9.90
2018-08-07T16:12:13.542Z,11.53
2018-08-07T16:14:48.739Z,10.20
2018-08-07T16:17:19.351Z,10.70
2018-08-07T16:19:53.772Z,9.90
2018-08-07T16:22:24.286Z,11.65
2018-08-07T16:24:54.809Z,10.78
2018-08-07T16:27:25.524Z,13.53
2018-08-07T16:29:56.089Z,10.38
2018-08-07T16:32:27.201Z,8.95
2018-08-07T16:34:57.570Z,11.35
2018-08-07T16:37:27.925Z,8.70
2018-08-07T16:39:58.526Z,9.23
2018-08-07T16:42:28.663Z,9.65
2018-08-07T16:44:59.346Z,11.73
2018-08-07T16:47:29.387Z,14.50
2018-08-07T16:49:59.915Z,12.80
2018-08-07T16:52:30.226Z,11.65
2018-08-07T16:55:00.607Z,17.73
2018-08-07T16:57:31.175Z,11.60
2018-08-07T17:00:01.745Z,15.95
2018-08-07T17:02:32.685Z,16.17
2018-08-07T17:05:03.689Z,14.95
2018-08-07T17:07:33.757Z,9.50
2018-08-07T17:10:07.440Z,12.40
2018-08-07T17:12:41.747Z,12.78
2018-08-07T17:15:12.422Z,19.73
2018-08-07T17:17:44.004Z,13.22
2018-08-07T17:20:17.152Z,15.63
2018-08-07T17:22:49.242Z,15.43
2018-08-07T17:25:20.744Z,16.07
2018-08-07T17:27:54.261Z,14.80
2018-08-07T17:30:27.974Z,10.45
2018-08-07T17:32:58.881Z,13.93
2018-08-07T17:35:29.331Z,9.83
2018-08-07T17:38:00.272Z,9.18
2018-08-07T17:40:31.145Z,13.40
2018-08-07T17:43:01.515Z,10.83
2018-08-07T17:45:32.356Z,12.95
2018-08-07T17:48:03.760Z,8.20
2018-08-07T17:50:34.264Z,11.13
2018-08-07T17:53:04.949Z,12.20
2018-08-07T17:55:37.556Z,9.23
2018-08-07T17:58:07.700Z,12.00
2018-08-07T18:00:38.321Z,8.43
2018-08-07T18:03:09.752Z,11.07
2018-08-07T18:05:40.758Z,12.57
2018-08-07T18:08:11.453Z,12.67
2018-08-07T18:10:42.566Z,11.10
2018-08-07T18:13:13.994Z,11.83
2018-08-07T18:15:45.212Z,9.03
2018-08-07T18:18:15.367Z,6.73
2018-08-07T18:20:45.533Z,10.60
2018-08-07T18:23:15.886Z,9.00
2018-08-07T18:25:46.379Z,10.27
2018-08-07T18:28:16.733Z,11.63
2018-08-07T18:30:47.200Z,10.33
2018-08-07T18:33:17.490Z,12.97
2018-08-07T18:35:47.914Z,10.93
2018-08-07T18:38:19.097Z,11.03
2018-08-07T18:40:49.349Z,9.33
2018-08-07T18:43:19.615Z,10.60
2018-08-07T18:45:50.071Z,13.33
2018-08-07T18:48:20.269Z,10.07
2018-08-07T18:50:51.163Z,9.27
2018-08-07T18:53:21.825Z,10.43
2018-08-07T18:55:51.820Z,8.20
2018-08-07T18:58:22.334Z,11.93
2018-08-07T19:00:53.110Z,9.17
2018-08-07T19:03:23.605Z,9.73
2018-08-07T19:05:54.097Z,10.13
2018-08-07T19:08:25.636Z,12.30
2018-08-07T19:10:55.776Z,10.00
2018-08-07T19:13:26.120Z,9.20
2018-08-07T19:15:56.831Z,8.77
2018-08-07T19:18:27.260Z,9.90
2018-08-07T19:20:57.417Z,9.73
2018-08-07T19:23:28.101Z,14.23
2018-08-07T19:25:58.259Z,9.27
2018-08-07T19:28:28.521Z,15.67
2018-08-07T19:30:58.876Z,7.73
2018-08-07T19:33:28.947Z,11.17
2018-08-07T19:35:59.149Z,14.60
2018-08-07T19:38:29.795Z,11.63
2018-08-07T19:41:00.130Z,7.53
2018-08-07T19:43:30.640Z,8.40
2018-08-07T19:46:00.753Z,9.27
2018-08-07T19:48:31.432Z,12.23
2018-08-07T19:51:01.869Z,8.53
2018-08-07T19:53:32.406Z,10.83
2018-08-07T19:56:03.042Z,9.70
2018-08-07T19:58:33.764Z,10.43
2018-08-07T20:01:07.141Z,10.73
2018-08-07T20:03:37.668Z,12.00
2018-08-07T20:06:08.295Z,7.33
2018-08-07T20:08:38.461Z,19.80
2018-08-07T20:11:08.642Z,13.23
2018-08-07T20:13:39.258Z,7.10
2018-08-07T20:16:09.510Z,13.57
2018-08-07T20:18:39.671Z,8.00
2018-08-07T20:21:10.172Z,9.67
2018-08-07T20:23:40.602Z,11.00
2018-08-07T20:26:11.132Z,8.63
2018-08-07T20:28:41.757Z,7.87
2018-08-07T20:31:12.027Z,8.77
2018-08-07T20:33:43.613Z,10.63
2018-08-07T20:36:13.746Z,10.07
2018-08-07T20:38:44.135Z,9.57
2018-08-07T20:41:14.671Z,9.07
2018-08-07T20:43:44.801Z,8.37
2018-08-07T20:46:15.056Z,6.57
2018-08-07T20:48:45.547Z,5.43
2018-08-07T20:51:15.668Z,9.97
2018-08-07T20:53:46.139Z,8.03
2018-08-07T20:56:16.596Z,10.13
2018-08-07T20:58:46.715Z,9.27
2018-08-07T21:01:17.181Z,13.63
2018-08-07T21:03:47.986Z,10.03
2018-08-07T21:06:18.254Z,7.23
2018-08-07T21:08:48.237Z,6.30
2018-08-07T21:11:18.757Z,8.27
2018-08-07T21:13:48.819Z,8.97
2018-08-07T21:16:18.945Z,12.17
2018-08-07T21:18:49.532Z,7.40
2018-08-07T21:21:19.680Z,10.60
2018-08-07T21:23:49.708Z,11.13
2018-08-07T21:26:20.059Z,9.80
2018-08-07T21:28:50.006Z,9.17
2018-08-07T21:31:19.960Z,5.60
2018-08-07T21:33:50.274Z,11.33
2018-08-07T21:36:20.321Z,12.67
2018-08-07T21:38:50.282Z,9.43
2018-08-07T21:41:20.783Z,7.97
2018-08-07T21:43:51.844Z,6.60
2018-08-07T21:46:22.045Z,10.13
2018-08-07T21:48:52.836Z,8.07
2018-08-07T21:51:23.039Z,8.37
2018-08-07T21:53:53.188Z,10.10
2018-08-07T21:56:23.238Z,10.43
2018-08-07T21:58:53.314Z,7.67
2018-08-07T22:01:23.459Z,8.50
2018-08-07T22:03:53.534Z,7.70
2018-08-07T22:06:23.604Z,8.57
2018-08-07T22:08:53.782Z,6.10
2018-08-07T22:11:24.024Z,6.10
2018-08-07T22:13:53.974Z,9.83
2018-08-07T22:16:24.405Z,6.87
2018-08-07T22:18:54.722Z,9.67
2018-08-07T22:21:24.939Z,10.87
2018-08-07T22:23:54.948Z,11.23
2018-08-07T22:26:25.329Z,10.63
2018-08-07T22:28:55.443Z,6.83
2018-08-07T22:31:26.119Z,12.27
2018-08-07T22:33:56.159Z,7.27
2018-08-07T22:36:26.196Z,9.53
2018-08-07T22:38:56.530Z,7.97
2018-08-07T22:41:26.818Z,7.37
2018-08-07T22:43:57.031Z,8.77
2018-08-07T22:46:27.515Z,7.97
2018-08-07T22:48:57.533Z,8.60
2018-08-07T22:51:28.477Z,7.37
2018-08-07T22:53:58.841Z,6.47
2018-08-07T22:56:28.207Z,7.67
2018-08-07T22:58:58.347Z,8.63
2018-08-07T23:01:28.874Z,8.23
2018-08-07T23:03:58.796Z,9.50
2018-08-07T23:06:28.829Z,9.40
2018-08-07T23:08:59.212Z,11.13
2018-08-07T23:11:29.163Z,7.23
2018-08-07T23:13:59.186Z,6.57
2018-08-07T23:16:30.341Z,9.23
2018-08-07T23:18:59.633Z,7.73
2018-08-07T23:21:28.883Z,7.03
2018-08-07T23:23:59.029Z,10.83
2018-08-07T23:26:29.562Z,8.17
2018-08-07T23:28:59.484Z,6.80
2018-08-07T23:31:29.412Z,9.00
2018-08-07T23:33:59.400Z,9.47
2018-08-07T23:36:29.628Z,8.30
2018-08-07T23:38:59.581Z,9.07
2018-08-07T23:41:29.549Z,5.80
2018-08-07T23:44:47.844Z,7.33
2018-08-07T23:47:17.859Z,8.83
2018-08-07T23:49:47.859Z,9.10
2018-08-07T23:52:18.274Z,8.63
2018-08-07T23:54:48.198Z,7.13
2018-08-07T23:57:18.292Z,8.10
2018-08-07T23:59:48.622Z,8.53
